sensor_id;sensor_type;location;lat;lon;timestamp;P1;durP1;ratioP1;P2;durP2;ratioP2
13325;SDS011;6732;51.044;3.746;2022-08-25T00:01:55;6.30;;;4.22;;
13325;SDS011;6732;51.044;3.746;2022-08-25T00:04:27;4.75;;;4.10;;
13325;SDS011;6732;51.044;3.746;2022-08-25T00:06:54;5.20;;;4.43;;
13325;SDS011;6732;51.044;3.746;2022-08-25T00:09:21;5.18;;;4.30;;
13325;SDS011;6732;51.044;3.746;2022-08-25T00:11:49;4.82;;;4.32;;
13325;SDS011;6732;51.044;3.746;2022-08-25T00:14:21;5.80;;;5.03;;
13325;SDS011;6732;51.044;3.746;2022-08-25T00:16:49;4.70;;;4.13;;
13325;SDS011;6732;51.044;3.746;2022-08-25T00:19:17;5.13;;;4.50;;
13325;SDS011;6732;51.044;3.746;2022-08-25T00:21:46;5.35;;;4.85;;
13325;SDS011;6732;51.044;3.746;2022-08-25T00:24:14;5.85;;;4.57;;
13325;SDS011;6732;51.044;3.746;2022-08-25T00:26:43;6.30;;;4.90;;
13325;SDS011;6732;51.044;3.746;2022-08-25T00:29:11;6.55;;;4.40;;
13325;SDS011;6732;51.044;3.746;2022-08-25T00:31:38;5.22;;;4.72;;
13325;SDS011;6732;51.044;3.746;2022-08-25T00:34:07;5.25;;;4.75;;
13325;SDS011;6732;51.044;3.746;2022-08-25T00:36:35;5.03;;;4.53;;
13325;SDS011;6732;51.044;3.746;2022-08-25T00:39:02;5.32;;;4.82;;
13325;SDS011;6732;51.044;3.746;2022-08-25T00:41:29;4.82;;;4.43;;
13325;SDS011;6732;51.044;3.746;2022-08-25T00:43:56;5.07;;;4.55;;
13325;SDS011;6732;51.044;3.746;2022-08-25T00:46:25;5.57;;;5.07;;
13325;SDS011;6732;51.044;3.746;2022-08-25T00:49:02;5.43;;;4.93;;
13325;SDS011;6732;51.044;3.746;2022-08-25T00:51:48;5.38;;;4.88;;
13325;SDS011;6732;51.044;3.746;2022-08-25T00:54:22;6.78;;;5.20;;
13325;SDS011;6732;51.044;3.746;2022-08-25T00:56:51;5.80;;;5.20;;
13325;SDS011;6732;51.044;3.746;2022-08-25T00:59:21;5.40;;;4.90;;
13325;SDS011;6732;51.044;3.746;2022-08-25T01:01:49;6.65;;;5.60;;
13325;SDS011;6732;51.044;3.746;2022-08-25T01:04:15;5.28;;;4.80;;
13325;SDS011;6732;51.044;3.746;2022-08-25T01:06:42;5.53;;;4.95;;
13325;SDS011;6732;51.044;3.746;2022-08-25T01:09:09;6.57;;;5.00;;
13325;SDS011;6732;51.044;3.746;2022-08-25T01:11:38;5.68;;;5.18;;
13325;SDS011;6732;51.044;3.746;2022-08-25T01:14:06;5.13;;;4.10;;
13325;SDS011;6732;51.044;3.746;2022-08-25T01:16:33;5.22;;;4.60;;
13325;SDS011;6732;51.044;3.746;2022-08-25T01:19:02;5.18;;;4.68;;
13325;SDS011;6732;51.044;3.746;2022-08-25T01:21:30;5.30;;;4.70;;
13325;SDS011;6732;51.044;3.746;2022-08-25T01:24:02;5.50;;;4.90;;
13325;SDS011;6732;51.044;3.746;2022-08-25T01:26:30;5.25;;;4.68;;
13325;SDS011;6732;51.044;3.746;2022-08-25T01:28:58;5.15;;;4.45;;
13325;SDS011;6732;51.044;3.746;2022-08-25T01:31:44;4.97;;;4.47;;
13325;SDS011;6732;51.044;3.746;2022-08-25T01:34:11;5.65;;;5.00;;
13325;SDS011;6732;51.044;3.746;2022-08-25T01:36:39;5.15;;;4.65;;
13325;SDS011;6732;51.044;3.746;2022-08-25T01:39:06;5.80;;;4.60;;
13325;SDS011;6732;51.044;3.746;2022-08-25T01:43:58;7.43;;;4.75;;
13325;SDS011;6732;51.044;3.746;2022-08-25T01:46:25;5.90;;;4.63;;
13325;SDS011;6732;51.044;3.746;2022-08-25T01:48:51;4.82;;;4.43;;
13325;SDS011;6732;51.044;3.746;2022-08-25T01:51:18;5.90;;;4.70;;
13325;SDS011;6732;51.044;3.746;2022-08-25T01:53:47;5.65;;;5.15;;
13325;SDS011;6732;51.044;3.746;2022-08-25T01:56:15;5.63;;;4.70;;
13325;SDS011;6732;51.044;3.746;2022-08-25T01:58:43;6.63;;;5.32;;
13325;SDS011;6732;51.044;3.746;2022-08-25T02:01:12;5.47;;;5.07;;
13325;SDS011;6732;51.044;3.746;2022-08-25T02:03:42;5.38;;;4.88;;
13325;SDS011;6732;51.044;3.746;2022-08-25T02:06:11;6.13;;;5.28;;
13325;SDS011;6732;51.044;3.746;2022-08-25T02:08:43;6.47;;;5.13;;
13325;SDS011;6732;51.044;3.746;2022-08-25T02:11:12;5.60;;;5.00;;
13325;SDS011;6732;51.044;3.746;2022-08-25T02:13:47;6.45;;;5.70;;
13325;SDS011;6732;51.044;3.746;2022-08-25T02:16:14;6.47;;;5.75;;
13325;SDS011;6732;51.044;3.746;2022-08-25T02:18:45;6.10;;;5.60;;
13325;SDS011;6732;51.044;3.746;2022-08-25T02:21:12;6.57;;;5.90;;
13325;SDS011;6732;51.044;3.746;2022-08-25T02:23:39;6.35;;;5.75;;
13325;SDS011;6732;51.044;3.746;2022-08-25T02:26:06;6.78;;;6.18;;
13325;SDS011;6732;51.044;3.746;2022-08-25T02:28:32;5.60;;;5.10;;
13325;SDS011;6732;51.044;3.746;2022-08-25T02:30:58;6.35;;;5.80;;
13325;SDS011;6732;51.044;3.746;2022-08-25T02:33:25;6.72;;;6.10;;
13325;SDS011;6732;51.044;3.746;2022-08-25T02:35:51;7.30;;;6.60;;
13325;SDS011;6732;51.044;3.746;2022-08-25T02:38:17;10.40;;;6.40;;
13325;SDS011;6732;51.044;3.746;2022-08-25T02:40:43;7.30;;;6.50;;
13325;SDS011;6732;51.044;3.746;2022-08-25T02:43:09;6.90;;;6.00;;
13325;SDS011;6732;51.044;3.746;2022-08-25T02:45:34;6.68;;;6.07;;
13325;SDS011;6732;51.044;3.746;2022-08-25T02:48:01;6.75;;;6.05;;
13325;SDS011;6732;51.044;3.746;2022-08-25T02:50:27;7.50;;;6.80;;
13325;SDS011;6732;51.044;3.746;2022-08-25T02:52:54;7.47;;;6.65;;
13325;SDS011;6732;51.044;3.746;2022-08-25T02:55:20;7.00;;;6.32;;
13325;SDS011;6732;51.044;3.746;2022-08-25T02:57:46;7.45;;;6.70;;
13325;SDS011;6732;51.044;3.746;2022-08-25T03:00:13;7.28;;;6.13;;
13325;SDS011;6732;51.044;3.746;2022-08-25T03:02:40;7.95;;;6.47;;
13325;SDS011;6732;51.044;3.746;2022-08-25T03:05:07;7.70;;;6.32;;
13325;SDS011;6732;51.044;3.746;2022-08-25T03:07:34;7.70;;;6.25;;
13325;SDS011;6732;51.044;3.746;2022-08-25T03:10:10;7.35;;;6.65;;
13325;SDS011;6732;51.044;3.746;2022-08-25T03:12:38;7.28;;;6.57;;
13325;SDS011;6732;51.044;3.746;2022-08-25T03:15:07;10.00;;;6.75;;
13325;SDS011;6732;51.044;3.746;2022-08-25T03:17:35;7.40;;;6.47;;
13325;SDS011;6732;51.044;3.746;2022-08-25T03:20:02;7.93;;;6.72;;
13325;SDS011;6732;51.044;3.746;2022-08-25T03:22:30;7.32;;;6.63;;
13325;SDS011;6732;51.044;3.746;2022-08-25T03:24:56;8.15;;;7.45;;
13325;SDS011;6732;51.044;3.746;2022-08-25T03:27:42;8.40;;;7.60;;
13325;SDS011;6732;51.044;3.746;2022-08-25T03:30:08;8.52;;;7.65;;
13325;SDS011;6732;51.044;3.746;2022-08-25T03:32:34;9.95;;;7.82;;
13325;SDS011;6732;51.044;3.746;2022-08-25T03:35:01;8.30;;;7.55;;
13325;SDS011;6732;51.044;3.746;2022-08-25T03:37:27;10.00;;;7.05;;
13325;SDS011;6732;51.044;3.746;2022-08-25T03:39:53;8.63;;;7.82;;
13325;SDS011;6732;51.044;3.746;2022-08-25T03:42:19;8.20;;;7.25;;
13325;SDS011;6732;51.044;3.746;2022-08-25T03:44:44;10.70;;;7.78;;
13325;SDS011;6732;51.044;3.746;2022-08-25T03:47:10;9.35;;;8.40;;
13325;SDS011;6732;51.044;3.746;2022-08-25T03:49:36;9.68;;;8.77;;
13325;SDS011;6732;51.044;3.746;2022-08-25T03:52:02;8.30;;;7.50;;
13325;SDS011;6732;51.044;3.746;2022-08-25T03:54:28;9.35;;;8.43;;
13325;SDS011;6732;51.044;3.746;2022-08-25T03:56:54;10.18;;;9.18;;
13325;SDS011;6732;51.044;3.746;2022-08-25T03:59:20;10.57;;;9.55;;
13325;SDS011;6732;51.044;3.746;2022-08-25T04:01:46;10.32;;;8.98;;
13325;SDS011;6732;51.044;3.746;2022-08-25T04:04:13;12.07;;;9.73;;
13325;SDS011;6732;51.044;3.746;2022-08-25T04:06:41;10.38;;;9.27;;
13325;SDS011;6732;51.044;3.746;2022-08-25T04:09:08;9.88;;;8.77;;
13325;SDS011;6732;51.044;3.746;2022-08-25T04:11:35;10.18;;;9.07;;
13325;SDS011;6732;51.044;3.746;2022-08-25T04:14:01;11.15;;;9.77;;
13325;SDS011;6732;51.044;3.746;2022-08-25T04:16:29;9.88;;;8.88;;
13325;SDS011;6732;51.044;3.746;2022-08-25T04:18:58;11.30;;;10.00;;
13325;SDS011;6732;51.044;3.746;2022-08-25T04:21:26;10.20;;;8.98;;
13325;SDS011;6732;51.044;3.746;2022-08-25T04:23:53;9.98;;;8.98;;
13325;SDS011;6732;51.044;3.746;2022-08-25T04:26:22;9.40;;;8.50;;
13325;SDS011;6732;51.044;3.746;2022-08-25T04:28:57;10.70;;;9.68;;
13325;SDS011;6732;51.044;3.746;2022-08-25T04:31:25;10.15;;;9.10;;
13325;SDS011;6732;51.044;3.746;2022-08-25T04:33:52;10.90;;;8.63;;
13325;SDS011;6732;51.044;3.746;2022-08-25T04:36:19;10.32;;;9.23;;
13325;SDS011;6732;51.044;3.746;2022-08-25T04:38:45;10.80;;;9.80;;
13325;SDS011;6732;51.044;3.746;2022-08-25T04:41:12;11.27;;;10.07;;
13325;SDS011;6732;51.044;3.746;2022-08-25T04:43:40;10.75;;;9.65;;
13325;SDS011;6732;51.044;3.746;2022-08-25T04:46:08;11.35;;;9.52;;
13325;SDS011;6732;51.044;3.746;2022-08-25T04:48:43;13.75;;;9.55;;
13325;SDS011;6732;51.044;3.746;2022-08-25T04:51:12;10.60;;;9.50;;
13325;SDS011;6732;51.044;3.746;2022-08-25T04:53:39;10.38;;;9.30;;
13325;SDS011;6732;51.044;3.746;2022-08-25T04:56:10;11.35;;;10.13;;
13325;SDS011;6732;51.044;3.746;2022-08-25T04:58:38;10.57;;;9.50;;
13325;SDS011;6732;51.044;3.746;2022-08-25T05:01:06;11.82;;;10.18;;
13325;SDS011;6732;51.044;3.746;2022-08-25T05:03:35;10.60;;;9.50;;
13325;SDS011;6732;51.044;3.746;2022-08-25T05:06:02;11.43;;;10.25;;
13325;SDS011;6732;51.044;3.746;2022-08-25T05:08:29;11.45;;;10.30;;
13325;SDS011;6732;51.044;3.746;2022-08-25T05:10:55;12.27;;;10.82;;
13325;SDS011;6732;51.044;3.746;2022-08-25T05:13:22;11.50;;;10.30;;
13325;SDS011;6732;51.044;3.746;2022-08-25T05:15:53;11.27;;;10.07;;
13325;SDS011;6732;51.044;3.746;2022-08-25T05:18:20;11.57;;;10.43;;
13325;SDS011;6732;51.044;3.746;2022-08-25T05:20:48;12.23;;;10.43;;
13325;SDS011;6732;51.044;3.746;2022-08-25T05:23:15;12.02;;;10.82;;
13325;SDS011;6732;51.044;3.746;2022-08-25T05:25:41;12.13;;;10.88;;
13325;SDS011;6732;51.044;3.746;2022-08-25T05:28:08;11.43;;;9.60;;
13325;SDS011;6732;51.044;3.746;2022-08-25T05:30:38;11.63;;;10.48;;
13325;SDS011;6732;51.044;3.746;2022-08-25T05:33:05;11.60;;;10.48;;
13325;SDS011;6732;51.044;3.746;2022-08-25T05:35:32;11.48;;;10.27;;
13325;SDS011;6732;51.044;3.746;2022-08-25T05:37:57;10.98;;;9.88;;
13325;SDS011;6732;51.044;3.746;2022-08-25T05:40:23;11.63;;;10.43;;
13325;SDS011;6732;51.044;3.746;2022-08-25T05:42:50;10.65;;;9.55;;
13325;SDS011;6732;51.044;3.746;2022-08-25T05:45:15;11.20;;;10.00;;
13325;SDS011;6732;51.044;3.746;2022-08-25T05:47:42;13.05;;;10.82;;
13325;SDS011;6732;51.044;3.746;2022-08-25T05:50:08;11.43;;;10.23;;
13325;SDS011;6732;51.044;3.746;2022-08-25T05:52:35;11.05;;;9.98;;
13325;SDS011;6732;51.044;3.746;2022-08-25T05:55:01;13.35;;;10.50;;
13325;SDS011;6732;51.044;3.746;2022-08-25T05:57:27;13.05;;;10.63;;
13325;SDS011;6732;51.044;3.746;2022-08-25T05:59:53;11.48;;;10.35;;
13325;SDS011;6732;51.044;3.746;2022-08-25T06:02:19;11.27;;;9.68;;
13325;SDS011;6732;51.044;3.746;2022-08-25T06:05:04;11.95;;;10.73;;
13325;SDS011;6732;51.044;3.746;2022-08-25T06:07:30;11.05;;;9.95;;
13325;SDS011;6732;51.044;3.746;2022-08-25T06:09:56;12.95;;;10.13;;
13325;SDS011;6732;51.044;3.746;2022-08-25T06:12:22;11.50;;;10.30;;
13325;SDS011;6732;51.044;3.746;2022-08-25T06:14:48;14.27;;;12.25;;
13325;SDS011;6732;51.044;3.746;2022-08-25T06:17:14;12.10;;;10.57;;
13325;SDS011;6732;51.044;3.746;2022-08-25T06:19:41;12.57;;;10.27;;
13325;SDS011;6732;51.044;3.746;2022-08-25T06:22:08;11.90;;;10.32;;
13325;SDS011;6732;51.044;3.746;2022-08-25T06:24:34;14.18;;;12.15;;
13325;SDS011;6732;51.044;3.746;2022-08-25T06:27:00;12.43;;;10.85;;
13325;SDS011;6732;51.044;3.746;2022-08-25T06:29:26;11.50;;;10.30;;
13325;SDS011;6732;51.044;3.746;2022-08-25T06:31:52;10.98;;;9.80;;
13325;SDS011;6732;51.044;3.746;2022-08-25T06:34:18;10.98;;;9.52;;
13325;SDS011;6732;51.044;3.746;2022-08-25T06:36:44;12.02;;;9.63;;
13325;SDS011;6732;51.044;3.746;2022-08-25T06:39:10;10.05;;;9.05;;
13325;SDS011;6732;51.044;3.746;2022-08-25T06:41:36;9.85;;;8.93;;
13325;SDS011;6732;51.044;3.746;2022-08-25T06:44:02;9.73;;;8.73;;
13325;SDS011;6732;51.044;3.746;2022-08-25T06:46:29;10.27;;;9.20;;
13325;SDS011;6732;51.044;3.746;2022-08-25T06:48:55;10.32;;;8.63;;
13325;SDS011;6732;51.044;3.746;2022-08-25T06:51:22;12.98;;;8.95;;
13325;SDS011;6732;51.044;3.746;2022-08-25T06:53:50;13.77;;;9.23;;
13325;SDS011;6732;51.044;3.746;2022-08-25T06:56:18;11.02;;;8.45;;
13325;SDS011;6732;51.044;3.746;2022-08-25T06:58:46;12.32;;;9.57;;
13325;SDS011;6732;51.044;3.746;2022-08-25T07:01:22;11.20;;;8.35;;
13325;SDS011;6732;51.044;3.746;2022-08-25T07:03:52;9.93;;;8.93;;
13325;SDS011;6732;51.044;3.746;2022-08-25T07:06:22;11.13;;;8.65;;
13325;SDS011;6732;51.044;3.746;2022-08-25T07:08:48;10.88;;;8.55;;
13325;SDS011;6732;51.044;3.746;2022-08-25T07:11:14;10.95;;;8.00;;
13325;SDS011;6732;51.044;3.746;2022-08-25T07:13:41;11.02;;;7.57;;
13325;SDS011;6732;51.044;3.746;2022-08-25T07:16:07;7.88;;;6.85;;
13325;SDS011;6732;51.044;3.746;2022-08-25T07:18:35;12.77;;;8.50;;
13325;SDS011;6732;51.044;3.746;2022-08-25T07:21:01;9.68;;;7.95;;
13325;SDS011;6732;51.044;3.746;2022-08-25T07:23:27;9.25;;;7.65;;
13325;SDS011;6732;51.044;3.746;2022-08-25T07:25:53;10.93;;;8.48;;
13325;SDS011;6732;51.044;3.746;2022-08-25T07:28:20;9.13;;;7.55;;
13325;SDS011;6732;51.044;3.746;2022-08-25T07:30:48;10.23;;;8.07;;
13325;SDS011;6732;51.044;3.746;2022-08-25T07:33:16;8.98;;;7.45;;
13325;SDS011;6732;51.044;3.746;2022-08-25T07:35:42;9.60;;;6.90;;
13325;SDS011;6732;51.044;3.746;2022-08-25T07:38:08;9.35;;;6.50;;
13325;SDS011;6732;51.044;3.746;2022-08-25T07:40:35;8.27;;;6.90;;
13325;SDS011;6732;51.044;3.746;2022-08-25T07:43:04;9.95;;;6.38;;
13325;SDS011;6732;51.044;3.746;2022-08-25T07:45:33;9.85;;;6.40;;
13325;SDS011;6732;51.044;3.746;2022-08-25T07:48:09;7.20;;;5.80;;
13325;SDS011;6732;51.044;3.746;2022-08-25T07:50:38;6.93;;;5.60;;
13325;SDS011;6732;51.044;3.746;2022-08-25T07:53:07;8.18;;;5.00;;
13325;SDS011;6732;51.044;3.746;2022-08-25T07:55:33;7.32;;;5.03;;
13325;SDS011;6732;51.044;3.746;2022-08-25T07:58:04;7.75;;;4.93;;
13325;SDS011;6732;51.044;3.746;2022-08-25T08:00:32;6.55;;;4.43;;
13325;SDS011;6732;51.044;3.746;2022-08-25T08:03:01;4.57;;;3.85;;
13325;SDS011;6732;51.044;3.746;2022-08-25T08:05:29;5.95;;;3.60;;
13325;SDS011;6732;51.044;3.746;2022-08-25T08:07:55;5.38;;;3.80;;
13325;SDS011;6732;51.044;3.746;2022-08-25T08:10:21;5.25;;;3.65;;
13325;SDS011;6732;51.044;3.746;2022-08-25T08:12:47;4.20;;;3.67;;
13325;SDS011;6732;51.044;3.746;2022-08-25T08:15:14;4.50;;;3.33;;
13325;SDS011;6732;51.044;3.746;2022-08-25T08:17:40;5.20;;;3.45;;
13325;SDS011;6732;51.044;3.746;2022-08-25T08:20:07;6.75;;;3.65;;
13325;SDS011;6732;51.044;3.746;2022-08-25T08:22:35;5.60;;;3.47;;
13325;SDS011;6732;51.044;3.746;2022-08-25T08:25:04;8.80;;;4.00;;
13325;SDS011;6732;51.044;3.746;2022-08-25T08:27:30;5.65;;;3.47;;
13325;SDS011;6732;51.044;3.746;2022-08-25T08:29:56;4.30;;;3.55;;
13325;SDS011;6732;51.044;3.746;2022-08-25T08:32:23;5.47;;;3.25;;
13325;SDS011;6732;51.044;3.746;2022-08-25T08:34:48;4.32;;;3.55;;
13325;SDS011;6732;51.044;3.746;2022-08-25T08:37:14;5.97;;;3.40;;
13325;SDS011;6732;51.044;3.746;2022-08-25T08:39:41;6.38;;;3.85;;
13325;SDS011;6732;51.044;3.746;2022-08-25T08:55:38;4.70;;;3.90;;
13325;SDS011;6732;51.044;3.746;2022-08-25T08:58:19;4.97;;;4.15;;
13325;SDS011;6732;51.044;3.746;2022-08-25T09:00:59;6.47;;;3.70;;
13325;SDS011;6732;51.044;3.746;2022-08-25T09:03:28;4.88;;;2.95;;
13325;SDS011;6732;51.044;3.746;2022-08-25T09:05:58;3.42;;;3.03;;
13325;SDS011;6732;51.044;3.746;2022-08-25T09:08:27;5.95;;;4.25;;
13325;SDS011;6732;51.044;3.746;2022-08-25T09:11:07;6.68;;;3.47;;
13325;SDS011;6732;51.044;3.746;2022-08-25T09:16:38;3.80;;;3.38;;
13325;SDS011;6732;51.044;3.746;2022-08-25T09:30:20;4.90;;;3.25;;
13325;SDS011;6732;51.044;3.746;2022-08-25T09:32:51;3.17;;;2.85;;
13325;SDS011;6732;51.044;3.746;2022-08-25T09:35:27;4.25;;;3.20;;
13325;SDS011;6732;51.044;3.746;2022-08-25T09:38:03;2.55;;;2.35;;
13325;SDS011;6732;51.044;3.746;2022-08-25T09:40:35;2.60;;;2.38;;
13325;SDS011;6732;51.044;3.746;2022-08-25T09:43:04;2.80;;;2.50;;
13325;SDS011;6732;51.044;3.746;2022-08-25T09:45:54;3.83;;;2.60;;
13325;SDS011;6732;51.044;3.746;2022-08-25T09:51:22;5.20;;;2.95;;
13325;SDS011;6732;51.044;3.746;2022-08-25T09:54:04;7.57;;;2.60;;
13325;SDS011;6732;51.044;3.746;2022-08-25T09:59:24;6.43;;;2.47;;
13325;SDS011;6732;51.044;3.746;2022-08-25T10:02:24;2.72;;;2.30;;
13325;SDS011;6732;51.044;3.746;2022-08-25T10:04:51;2.88;;;2.50;;
13325;SDS011;6732;51.044;3.746;2022-08-25T10:07:19;2.13;;;2.03;;
13325;SDS011;6732;51.044;3.746;2022-08-25T10:09:56;4.88;;;2.70;;
13325;SDS011;6732;51.044;3.746;2022-08-25T10:15:14;3.53;;;2.60;;
13325;SDS011;6732;51.044;3.746;2022-08-25T10:17:42;2.92;;;2.67;;
13325;SDS011;6732;51.044;3.746;2022-08-25T10:22:34;3.67;;;2.63;;
13325;SDS011;6732;51.044;3.746;2022-08-25T10:25:02;4.13;;;2.45;;
13325;SDS011;6732;51.044;3.746;2022-08-25T10:30:10;2.90;;;2.30;;
13325;SDS011;6732;51.044;3.746;2022-08-25T10:32:46;2.80;;;2.40;;
13325;SDS011;6732;51.044;3.746;2022-08-25T10:38:43;3.28;;;2.40;;
13325;SDS011;6732;51.044;3.746;2022-08-25T10:47:42;3.45;;;1.90;;
13325;SDS011;6732;51.044;3.746;2022-08-25T10:53:27;4.93;;;2.42;;
13325;SDS011;6732;51.044;3.746;2022-08-25T10:56:22;5.03;;;2.60;;
13325;SDS011;6732;51.044;3.746;2022-08-25T11:09:39;4.70;;;3.50;;
13325;SDS011;6732;51.044;3.746;2022-08-25T11:14:36;9.38;;;3.70;;
13325;SDS011;6732;51.044;3.746;2022-08-25T11:19:51;7.30;;;3.30;;
13325;SDS011;6732;51.044;3.746;2022-08-25T11:22:29;4.50;;;3.20;;
13325;SDS011;6732;51.044;3.746;2022-08-25T11:30:44;5.03;;;2.97;;
13325;SDS011;6732;51.044;3.746;2022-08-25T11:33:11;3.55;;;2.90;;
13325;SDS011;6732;51.044;3.746;2022-08-25T11:35:41;5.07;;;2.85;;
13325;SDS011;6732;51.044;3.746;2022-08-25T11:50:02;7.22;;;3.28;;
13325;SDS011;6732;51.044;3.746;2022-08-25T11:57:45;7.63;;;3.25;;
13325;SDS011;6732;51.044;3.746;2022-08-25T12:03:20;4.70;;;3.03;;
13325;SDS011;6732;51.044;3.746;2022-08-25T12:14:51;5.47;;;3.70;;
13325;SDS011;6732;51.044;3.746;2022-08-25T12:30:02;6.45;;;3.30;;
13325;SDS011;6732;51.044;3.746;2022-08-25T12:32:56;5.50;;;3.88;;
13325;SDS011;6732;51.044;3.746;2022-08-25T12:41:06;10.95;;;5.47;;
13325;SDS011;6732;51.044;3.746;2022-08-25T12:43:44;6.97;;;4.85;;
13325;SDS011;6732;51.044;3.746;2022-08-25T12:48:54;8.98;;;5.47;;
13325;SDS011;6732;51.044;3.746;2022-08-25T12:54:21;7.30;;;5.35;;
13325;SDS011;6732;51.044;3.746;2022-08-25T12:57:40;7.70;;;5.45;;
13325;SDS011;6732;51.044;3.746;2022-08-25T12:59:41;9.10;;;6.05;;
13325;SDS011;6732;51.044;3.746;2022-08-25T13:16:15;9.32;;;6.22;;
13325;SDS011;6732;51.044;3.746;2022-08-25T13:18:51;8.52;;;5.55;;
13325;SDS011;6732;51.044;3.746;2022-08-25T13:23:50;7.70;;;5.47;;
13325;SDS011;6732;51.044;3.746;2022-08-25T13:26:25;9.40;;;6.80;;
13325;SDS011;6732;51.044;3.746;2022-08-25T13:28:58;6.30;;;5.63;;
13325;SDS011;6732;51.044;3.746;2022-08-25T13:31:27;7.13;;;6.43;;
13325;SDS011;6732;51.044;3.746;2022-08-25T13:33:56;6.97;;;5.82;;
13325;SDS011;6732;51.044;3.746;2022-08-25T13:36:34;8.88;;;5.90;;
13325;SDS011;6732;51.044;3.746;2022-08-25T13:39:30;7.60;;;5.28;;
13325;SDS011;6732;51.044;3.746;2022-08-25T13:42:00;8.88;;;8.02;;
13325;SDS011;6732;51.044;3.746;2022-08-25T13:44:30;9.77;;;7.35;;
13325;SDS011;6732;51.044;3.746;2022-08-25T13:47:12;10.82;;;7.20;;
13325;SDS011;6732;51.044;3.746;2022-08-25T13:49:41;9.15;;;6.72;;
13325;SDS011;6732;51.044;3.746;2022-08-25T13:52:25;13.48;;;9.07;;
13325;SDS011;6732;51.044;3.746;2022-08-25T13:54:57;13.60;;;10.68;;
13325;SDS011;6732;51.044;3.746;2022-08-25T13:57:26;14.63;;;11.38;;
13325;SDS011;6732;51.044;3.746;2022-08-25T14:00:01;17.83;;;11.93;;
13325;SDS011;6732;51.044;3.746;2022-08-25T14:02:44;21.48;;;14.02;;
13325;SDS011;6732;51.044;3.746;2022-08-25T14:05:14;19.17;;;15.98;;
13325;SDS011;6732;51.044;3.746;2022-08-25T14:07:54;16.70;;;14.27;;
13325;SDS011;6732;51.044;3.746;2022-08-25T14:13:09;19.83;;;16.42;;
13325;SDS011;6732;51.044;3.746;2022-08-25T14:15:41;22.65;;;18.67;;
13325;SDS011;6732;51.044;3.746;2022-08-25T14:18:12;21.52;;;19.17;;
13325;SDS011;6732;51.044;3.746;2022-08-25T14:20:45;23.10;;;17.55;;
13325;SDS011;6732;51.044;3.746;2022-08-25T14:23:19;24.27;;;19.23;;
13325;SDS011;6732;51.044;3.746;2022-08-25T14:25:50;22.45;;;18.77;;
13325;SDS011;6732;51.044;3.746;2022-08-25T14:28:19;22.13;;;16.98;;
13325;SDS011;6732;51.044;3.746;2022-08-25T14:30:48;21.88;;;15.95;;
13325;SDS011;6732;51.044;3.746;2022-08-25T14:33:21;19.35;;;14.25;;
13325;SDS011;6732;51.044;3.746;2022-08-25T14:35:51;16.17;;;11.85;;
13325;SDS011;6732;51.044;3.746;2022-08-25T14:38:19;17.65;;;12.93;;
13325;SDS011;6732;51.044;3.746;2022-08-25T14:40:46;18.85;;;13.85;;
13325;SDS011;6732;51.044;3.746;2022-08-25T14:43:12;15.55;;;12.40;;
13325;SDS011;6732;51.044;3.746;2022-08-25T14:45:40;18.15;;;13.15;;
13325;SDS011;6732;51.044;3.746;2022-08-25T14:48:08;15.52;;;12.38;;
13325;SDS011;6732;51.044;3.746;2022-08-25T14:50:38;16.05;;;12.20;;
13325;SDS011;6732;51.044;3.746;2022-08-25T14:53:06;18.17;;;10.57;;
13325;SDS011;6732;51.044;3.746;2022-08-25T14:55:33;14.70;;;9.60;;
13325;SDS011;6732;51.044;3.746;2022-08-25T14:57:59;13.60;;;8.68;;
13325;SDS011;6732;51.044;3.746;2022-08-25T15:00:25;15.13;;;8.32;;
13325;SDS011;6732;51.044;3.746;2022-08-25T15:02:51;15.32;;;9.48;;
13325;SDS011;6732;51.044;3.746;2022-08-25T15:05:19;12.65;;;8.18;;
13325;SDS011;6732;51.044;3.746;2022-08-25T15:07:49;11.65;;;7.10;;
13325;SDS011;6732;51.044;3.746;2022-08-25T15:10:34;12.05;;;8.18;;
13325;SDS011;6732;51.044;3.746;2022-08-25T15:13:00;14.48;;;8.10;;
13325;SDS011;6732;51.044;3.746;2022-08-25T15:15:26;13.30;;;8.23;;
13325;SDS011;6732;51.044;3.746;2022-08-25T15:17:53;13.35;;;7.43;;
13325;SDS011;6732;51.044;3.746;2022-08-25T15:20:20;16.50;;;8.45;;
13325;SDS011;6732;51.044;3.746;2022-08-25T15:22:46;12.80;;;7.75;;
13325;SDS011;6732;51.044;3.746;2022-08-25T15:25:13;16.70;;;9.45;;
13325;SDS011;6732;51.044;3.746;2022-08-25T15:27:38;15.05;;;8.63;;
13325;SDS011;6732;51.044;3.746;2022-08-25T15:30:05;12.65;;;6.85;;
13325;SDS011;6732;51.044;3.746;2022-08-25T15:32:32;11.35;;;7.35;;
13325;SDS011;6732;51.044;3.746;2022-08-25T15:34:58;11.85;;;6.60;;
13325;SDS011;6732;51.044;3.746;2022-08-25T15:37:25;11.05;;;6.55;;
13325;SDS011;6732;51.044;3.746;2022-08-25T15:39:51;16.85;;;7.95;;
13325;SDS011;6732;51.044;3.746;2022-08-25T15:42:17;16.10;;;8.30;;
13325;SDS011;6732;51.044;3.746;2022-08-25T15:44:43;12.38;;;7.57;;
13325;SDS011;6732;51.044;3.746;2022-08-25T15:47:10;13.88;;;8.60;;
13325;SDS011;6732;51.044;3.746;2022-08-25T15:49:36;15.13;;;8.60;;
13325;SDS011;6732;51.044;3.746;2022-08-25T15:52:02;10.85;;;6.40;;
13325;SDS011;6732;51.044;3.746;2022-08-25T15:54:29;16.40;;;8.90;;
13325;SDS011;6732;51.044;3.746;2022-08-25T15:56:56;13.70;;;8.38;;
13325;SDS011;6732;51.044;3.746;2022-08-25T15:59:23;11.65;;;6.13;;
13325;SDS011;6732;51.044;3.746;2022-08-25T16:01:50;13.68;;;8.52;;
13325;SDS011;6732;51.044;3.746;2022-08-25T16:04:18;17.48;;;9.90;;
13325;SDS011;6732;51.044;3.746;2022-08-25T16:06:49;14.68;;;9.05;;
13325;SDS011;6732;51.044;3.746;2022-08-25T16:09:16;12.70;;;8.20;;
13325;SDS011;6732;51.044;3.746;2022-08-25T16:11:42;12.68;;;7.72;;
13325;SDS011;6732;51.044;3.746;2022-08-25T16:14:09;16.77;;;9.13;;
13325;SDS011;6732;51.044;3.746;2022-08-25T16:16:36;10.65;;;7.70;;
13325;SDS011;6732;51.044;3.746;2022-08-25T16:19:02;13.73;;;7.85;;
13325;SDS011;6732;51.044;3.746;2022-08-25T16:21:30;13.52;;;7.57;;
13325;SDS011;6732;51.044;3.746;2022-08-25T16:24:00;14.18;;;8.35;;
13325;SDS011;6732;51.044;3.746;2022-08-25T16:26:28;13.55;;;7.00;;
13325;SDS011;6732;51.044;3.746;2022-08-25T16:28:54;14.30;;;7.22;;
13325;SDS011;6732;51.044;3.746;2022-08-25T16:31:20;15.77;;;7.60;;
13325;SDS011;6732;51.044;3.746;2022-08-25T16:33:46;13.60;;;6.85;;
13325;SDS011;6732;51.044;3.746;2022-08-25T16:36:15;9.32;;;5.63;;
13325;SDS011;6732;51.044;3.746;2022-08-25T16:38:51;11.07;;;5.35;;
13325;SDS011;6732;51.044;3.746;2022-08-25T16:41:18;10.98;;;5.07;;
13325;SDS011;6732;51.044;3.746;2022-08-25T16:43:46;11.00;;;5.80;;
13325;SDS011;6732;51.044;3.746;2022-08-25T16:46:14;12.95;;;5.25;;
13325;SDS011;6732;51.044;3.746;2022-08-25T16:48:41;12.43;;;5.30;;
13325;SDS011;6732;51.044;3.746;2022-08-25T16:51:08;8.57;;;4.85;;
13325;SDS011;6732;51.044;3.746;2022-08-25T16:53:39;8.70;;;4.93;;
13325;SDS011;6732;51.044;3.746;2022-08-25T16:56:24;8.07;;;4.10;;
13325;SDS011;6732;51.044;3.746;2022-08-25T16:58:52;8.27;;;4.22;;
13325;SDS011;6732;51.044;3.746;2022-08-25T17:01:19;9.00;;;4.43;;
13325;SDS011;6732;51.044;3.746;2022-08-25T17:03:46;8.02;;;4.57;;
13325;SDS011;6732;51.044;3.746;2022-08-25T17:06:15;8.73;;;4.68;;
13325;SDS011;6732;51.044;3.746;2022-08-25T17:08:41;11.95;;;4.80;;
13325;SDS011;6732;51.044;3.746;2022-08-25T17:11:09;6.88;;;3.85;;
13325;SDS011;6732;51.044;3.746;2022-08-25T17:13:48;10.90;;;3.80;;
13325;SDS011;6732;51.044;3.746;2022-08-25T17:16:16;7.78;;;3.80;;
13325;SDS011;6732;51.044;3.746;2022-08-25T17:18:45;8.43;;;3.50;;
13325;SDS011;6732;51.044;3.746;2022-08-25T17:21:12;9.43;;;3.30;;
13325;SDS011;6732;51.044;3.746;2022-08-25T17:23:41;9.18;;;3.10;;
13325;SDS011;6732;51.044;3.746;2022-08-25T17:26:09;7.50;;;2.72;;
13325;SDS011;6732;51.044;3.746;2022-08-25T17:28:37;10.77;;;3.53;;
13325;SDS011;6732;51.044;3.746;2022-08-25T17:31:05;8.65;;;3.33;;
13325;SDS011;6732;51.044;3.746;2022-08-25T17:33:31;11.18;;;3.17;;
13325;SDS011;6732;51.044;3.746;2022-08-25T17:35:58;10.35;;;3.00;;